Encounter — PHAO — position and weather

sailwx.info

Track history (hours):
 
Tides and Currents Weather Stations Pressure Air Temp Water Temp Dewpoint Dewpoint Depression Visibility Wind Speed Wind Dir Waves Ship Positions

Encounter

Last reported at 2018-May-21 08:09 UTC. Time now 2018-May-21 09:01 UTC.
Position N 49°38' W 003°51'.

Length 136 m; draft 6.8 m.

Type: Ship (hazmat cat A). MMSI: 245078000.

Date/timePositionNaut miles runAvg speedWind from/ knotsBaromVisibWave heightAir tempDewpointWater temp
2018-May-21 08:09N 49°38' W 003°51'515.1
2018-May-21 07:47N 49°41' W 003°44'515.4
2018-May-21 07:29N 49°43' W 003°38'815.5
2018-May-21 06:59N 49°48' W 003°28'815.6
2018-May-21 06:30N 49°51' W 003°18'916.1
2018-May-21 05:57N 49°56' W 003°06'716.3
2018-May-21 05:30N 49°60' W 002°56'816.6
2018-May-21 05:00N 50°02' W 002°44'2316.2
2018-May-21 03:36N 50°08' W 002°10'115.4
2018-May-21 03:31N 50°09' W 002°08'714.9
2018-May-21 03:00N 50°11' W 001°57'714.0
2018-May-21 02:30N 50°12' W 001°46'713.3
2018-May-21 02:00N 50°14' W 001°36'612.7
2018-May-21 01:30N 50°16' W 001°27'612.3
2018-May-21 01:00N 50°18' W 001°17'611.8
2018-May-21 00:31N 50°19' W 001°08'611.4
2018-May-21 00:00N 50°21' W 000°60'611.5
2018-May-20 23:30N 50°23' W 000°51'612.2
2018-May-20 23:00N 50°25' W 000°42'612.9
2018-May-20 22:30N 50°27' W 000°33'713.5
2018-May-20 22:01N 50°29' W 000°23'714.2
2018-May-20 21:30N 50°31' W 000°12'714.6
2018-May-20 21:00N 50°33' W 000°01'715.0
2018-May-20 20:30N 50°35' E 000°11'815.5
2018-May-20 20:01N 50°37' E 000°22'915.4
2018-May-20 19:27N 50°39' E 000°35'715.1
2018-May-20 19:01N 50°43' E 000°44'815.3
2018-May-20 18:31N 50°48' E 000°54'714.9
2018-May-20 18:00N 50°52' E 001°04'714.4
2018-May-20 17:30N 50°56' E 001°13'713.5
2018-May-20 17:00N 51°01' E 001°21'612.8
2018-May-20 16:30N 51°05' E 001°28'612.7
2018-May-20 16:00N 51°09' E 001°36'612.8
2018-May-20 15:30N 51°13' E 001°45'713.5
2018-May-20 15:00N 51°19' E 001°50'714.7
2018-May-20 14:30N 51°25' E 001°56'815.3
2018-May-20 14:00N 51°31' E 002°04'816.0
2018-May-20 13:31N 51°37' E 002°13'816.6
2018-May-20 13:00N 51°43' E 002°22'916.8
2018-May-20 12:29N 51°49' E 002°32'1616.7
2018-May-20 11:31N 52°01' E 002°50'116.3
2018-May-20 11:28N 52°01' E 002°51'715.7
2018-May-20 11:00N 52°02' E 003°02'915.6
2018-May-20 10:27N 52°02' E 003°17'715.4
2018-May-20 09:59N 52°03' E 003°28'715.0
2018-May-20 09:30N 52°03' E 003°40'714.6
2018-May-20 09:01N 52°02' E 003°52'611.9
2018-May-20 08:30N 52°00' E 004°01'612.9
2018-May-20 08:00N 51°57' E 004°10'510.4
2018-May-20 07:30N 51°54' E 004°17'5 9.3
2018-May-20 07:00N 51°53' E 004°24'1 1.6
2018-May-20 06:30N 51°53' E 004°25'0 0.0
2018-May-20 05:58N 51°53' E 004°25'0 0.0
2018-May-20 05:28N 51°53' E 004°25'0 0.0
2018-May-20 04:58N 51°53' E 004°25'0 0.0
2018-May-20 04:28N 51°53' E 004°25'0 0.0
2018-May-20 03:58N 51°53' E 004°25'0 0.0
2018-May-20 03:28N 51°53' E 004°25'0 0.0
2018-May-20 02:58N 51°53' E 004°25'0 0.0
2018-May-20 02:28N 51°53' E 004°25'0 0.0
2018-May-20 01:58N 51°53' E 004°25'0 0.0
2018-May-20 01:28N 51°53' E 004°25'0 0.0
2018-May-20 00:58N 51°53' E 004°25'0 0.0
2018-May-20 00:28N 51°53' E 004°25'0 0.0
2018-May-19 23:58N 51°53' E 004°25'0 0.0
2018-May-19 23:28N 51°53' E 004°25'0 0.0
2018-May-19 22:58N 51°53' E 004°25'0 0.0
2018-May-19 22:28N 51°53' E 004°25'0 0.0
2018-May-19 21:58N 51°53' E 004°25'0 0.0
2018-May-19 21:28N 51°53' E 004°25'0 0.0
2018-May-19 21:00N 51°53' E 004°25'0 0.4
2018-May-19 20:30N 51°53' E 004°25'1 2.2
2018-May-19 20:00N 51°54' E 004°24'4 8.0
2018-May-19 19:30N 51°54' E 004°17'5 9.7
2018-May-19 19:00N 51°57' E 004°11'612.5
2018-May-19 18:31N 51°60' E 004°02'713.7
2018-May-19 18:00N 52°00' E 003°51'4 8.9
2018-May-19 17:30N 51°60' E 003°44'5 9.7
2018-May-19 17:00N 51°58' E 003°36'5 9.8
2018-May-19 16:30N 51°57' E 003°29'4 8.7
2018-May-19 16:00N 51°57' E 003°21'1 2.3
2018-May-19 15:30N 51°56' E 003°22'3 4.9
2018-May-19 14:58N 51°59' E 003°21'3 6.3
2018-May-19 14:30N 51°56' E 003°22'5 8.7
2018-May-19 13:56N 51°54' E 003°14'611.1
2018-May-19 13:24N 51°52' E 003°05'2510.0
2018-May-19 10:57N 51°41' E 002°30'4 9.6
2018-May-19 10:30N 51°38' E 002°25'5 9.5
2018-May-19 09:59N 51°34' E 002°20'5 9.7
2018-May-19 09:29N 51°31' E 002°15'510.0
2018-May-19 09:00N 51°27' E 002°10'510.8
2018-May-19 08:30N 51°22' E 002°07'611.4
2018-May-19 08:00N 51°16' E 002°05'611.4
2018-May-19 07:30N 51°12' E 001°59'612.3
2018-May-19 07:00N 51°08' E 001°51'612.1
2018-May-19 06:30N 51°05' E 001°44'612.0
2018-May-19 06:00N 51°01' E 001°36'1512.2
2018-May-19 04:48N 50°48' E 001°25'413.1
2018-May-19 04:29N 50°44' E 001°23'3312.6
2018-May-19 01:50N 50°27' E 000°38'514.3
2018-May-19 01:30N 50°26' E 000°31'714.5
2018-May-19 00:59N 50°24' E 000°19'715.0
2018-May-19 00:30N 50°22' E 000°08'815.5
2018-May-19 00:00N 50°20' W 000°03'816.0
2018-May-18 23:30N 50°17' W 000°15'816.6
2018-May-18 23:00N 50°15' W 000°27'816.9
2018-May-18 22:30N 50°13' W 000°40'917.1
2018-May-18 22:00N 50°10' W 000°53'917.3
2018-May-18 21:31N 50°08' W 001°06'917.1
2018-May-18 21:00N 50°06' W 001°19'816.8
2018-May-18 20:30N 50°04' W 001°31'816.2
2018-May-18 20:00N 50°02' W 001°44'815.4
2018-May-18 19:30N 49°60' W 001°55'714.6
2018-May-18 19:00N 49°58' W 002°06'713.7
2018-May-18 18:30N 49°56' W 002°16'713.1
2018-May-18 18:00N 49°54' W 002°26'612.7
2018-May-18 17:30N 49°52' W 002°36'612.4
2018-May-18 17:00N 49°51' W 002°45'612.2
2018-May-18 16:30N 49°50' W 002°54'611.9
2018-May-18 16:00N 49°49' W 003°03'611.9
2018-May-18 15:30N 49°49' W 003°13'1211.9
2018-May-18 14:32N 49°50' W 003°31'011.9
2018-May-18 14:30N 49°50' W 003°31'612.1
2018-May-18 14:00N 49°50' W 003°41'4114.2
2018-May-18 11:07N 49°53' W 004°44'415.1
2018-May-18 10:51N 49°53' W 004°50'915.3
2018-May-18 10:16N 49°53' W 005°04'1415.9
2018-May-18 09:24N 49°54' W 005°25'1116.4
2018-May-18 08:45N 49°54' W 005°42'1216.3
2018-May-18 08:03N 49°55' W 005°60'116.2
2018-May-18 08:00N 49°56' W 005°60'2215.7
2018-May-18 06:37N 50°18' W 006°00'215.0
2018-May-18 06:30N 50°20' W 006°00'715.0
2018-May-18 06:00N 50°27' W 006°01'714.9
2018-May-18 05:30N 50°35' W 006°01'815.4
2018-May-18 05:00N 50°42' W 006°01'815.7
2018-May-18 04:30N 50°50' W 006°01'816.0
2018-May-18 04:01N 50°58' W 006°01'816.2
2018-May-18 03:31N 51°06' W 006°01'816.6
2018-May-18 03:00N 51°15' W 005°60'817.0
2018-May-18 02:31N 51°23' W 005°60'917.3
2018-May-18 02:01N 51°32' W 005°60'817.0
2018-May-18 01:31N 51°40' W 005°59'816.9
2018-May-18 01:00N 51°48' W 005°55'816.1
2018-May-18 00:30N 51°56' W 005°51'815.7
2018-May-18 00:00N 52°03' W 005°47'815.1
2018-May-17 23:27N 52°11' W 005°43'714.6
2018-May-17 23:00N 52°17' W 005°40'814.1
2018-May-17 22:28N 52°25' W 005°36'713.5
2018-May-17 21:58N 52°31' W 005°32'612.8
2018-May-17 21:28N 52°37' W 005°29'612.4
2018-May-17 21:00N 52°43' W 005°25'612.7
2018-May-17 20:30N 52°48' W 005°21'913.7
2018-May-17 19:49N 52°57' W 005°16'714.8
2018-May-17 19:20N 53°04' W 005°11'515.2
2018-May-17 19:00N 53°08' W 005°06'815.6
2018-May-17 18:30N 53°15' W 005°01'4015.2
2018-May-17 15:53N 53°33' W 004°02'1217.2
2018-May-17 15:12N 53°33' W 003°43'316.9
2018-May-17 15:00N 53°33' W 003°37'916.9
2018-May-17 14:28N 53°33' W 003°22'613.4
2018-May-17 14:00N 53°32' W 003°11'713.7
2018-May-17 13:29N 53°27' W 003°02'1 1.1
2018-May-17 13:00N 53°27' W 003°01'0 0.4
2018-May-17 12:30N 53°27' W 003°01'0 0.8
2018-May-17 12:00N 53°28' W 003°02'0 0.0
2018-May-17 11:23N 53°28' W 003°02'0 0.0
2018-May-17 10:56N 53°28' W 003°02'0 0.0
2018-May-17 10:29N 53°28' W 003°02'0 0.0
2018-May-17 09:53N 53°28' W 003°02'0 0.0
2018-May-17 09:26N 53°28' W 003°02'0 0.0
2018-May-17 08:59N 53°28' W 003°02'0 0.0
2018-May-17 08:28N 53°28' W 003°02'0 0.0
2018-May-17 07:58N 53°28' W 003°02'0 0.0
2018-May-17 07:28N 53°28' W 003°02'0 0.0
2018-May-17 06:58N 53°28' W 003°02'0 0.0
2018-May-17 06:25N 53°28' W 003°02'0 0.0
2018-May-17 05:55N 53°28' W 003°02'0 0.0
2018-May-17 05:28N 53°28' W 003°02'0 0.0
2018-May-17 04:55N 53°28' W 003°02'0 0.0
2018-May-17 04:28N 53°28' W 003°02'0 0.0
2018-May-17 03:55N 53°28' W 003°02'0 0.0
2018-May-17 03:28N 53°28' W 003°02'0 0.0
2018-May-17 02:52N 53°28' W 003°02'0 0.0
2018-May-17 02:28N 53°28' W 003°02'0 0.0
2018-May-17 01:58N 53°28' W 003°02'0 0.0
2018-May-17 01:28N 53°28' W 003°02'0 0.6
2018-May-17 01:00N 53°27' W 003°01'0 0.7
2018-May-17 00:30N 53°27' W 003°01'0 0.0
2018-May-17 00:00N 53°27' W 003°01'0 0.4
2018-May-16 23:30N 53°27' W 003°01'0 0.8
2018-May-16 23:00N 53°27' W 003°02'612.1
2018-May-16 22:30N 53°32' W 003°08'714.0
2018-May-16 22:00N 53°31' W 003°20'611.4
2018-May-16 21:31N 53°31' W 003°29'611.3
2018-May-16 21:00N 53°30' W 003°39'713.3
2018-May-16 20:30N 53°30' W 003°50'714.7
2018-May-16 20:00N 53°30' W 004°02'5313.7
2018-May-16 16:08N 53°21' W 005°30'214.1
2018-May-16 16:00N 53°22' W 005°34'714.1
2018-May-16 15:30N 53°22' W 005°45'714.0
2018-May-16 15:00N 53°22' W 005°57'611.2
2018-May-16 14:30N 53°20' W 006°06'4 8.4
2018-May-16 14:00N 53°21' W 006°13'0 0.1
2018-May-16 13:29N 53°21' W 006°13'0 0.0
2018-May-16 08:24N 53°21' W 006°13'0 0.0
2018-May-16 07:57N 53°21' W 006°13'0 0.0
2018-May-16 04:12N 53°21' W 006°13'0 0.0
2018-May-16 03:57N 53°21' W 006°13'0 0.0
2018-May-16 01:57N 53°21' W 006°13'0 0.0
2018-May-15 22:58N 53°21' W 006°13'0 0.0
2018-May-15 22:30N 53°21' W 006°13'0 0.0
2018-May-15 21:55N 53°21' W 006°13'0 0.0
2018-May-15 21:03N 53°21' W 006°13'0 0.0
2018-May-15 20:58N 53°21' W 006°13'0 0.0
2018-May-15 20:30N 53°21' W 006°13'0 0.0
2018-May-15 20:01N 53°21' W 006°13'0 0.0
2018-May-15 19:25N 53°21' W 006°13'0 0.0
2018-May-15 18:54N 53°21' W 006°13'0 0.2
2018-May-15 18:29N 53°21' W 006°13'3 5.9
2018-May-15 18:00N 53°21' W 006°08'510.5
2018-May-15 17:30N 53°17' W 006°01'714.4
2018-May-15 17:00N 53°11' W 005°57'5 9.7
2018-May-15 16:30N 53°15' W 006°00'611.2
2018-May-15 16:00N 53°10' W 005°57'510.6
2018-May-15 15:30N 53°05' W 005°55'5 9.9
2018-May-15 15:00N 52°60' W 005°54'510.8
2018-May-15 14:30N 52°54' W 005°53'713.3
2018-May-15 14:00N 52°48' W 005°52'1513.3
2018-May-15 12:53N 52°33' W 005°50'613.7
2018-May-15 12:28N 52°27' W 005°50'714.2
2018-May-15 12:00N 52°21' W 005°49'4916.0
2018-May-15 08:58N 51°32' W 005°52'6416.4
2018-May-15 05:05N 50°28' W 005°53'116.7
2018-May-15 05:00N 50°27' W 005°53'816.6
2018-May-15 04:30N 50°19' W 005°53'40214.6
2018-May-14 01:02N 43°50' W 003°21'014.4
2018-May-14 01:00N 43°50' W 003°21'714.6
2018-May-14 00:31N 43°43' W 003°17'714.6
2018-May-14 00:00N 43°36' W 003°13'714.7
2018-May-13 23:31N 43°30' W 003°09'714.5
2018-May-13 23:00N 43°23' W 003°05'3 5.3
2018-May-13 22:30N 43°21' W 003°03'0 0.1
2018-May-13 22:01N 43°21' W 003°03'0 0.0
2018-May-13 21:30N 43°21' W 003°03'0 0.0
2018-May-13 20:58N 43°21' W 003°03'0 0.0
2018-May-13 20:28N 43°21' W 003°03'0 0.0
2018-May-13 19:58N 43°21' W 003°03'0 0.0
2018-May-13 19:25N 43°21' W 003°03'0 0.0
2018-May-13 18:58N 43°21' W 003°03'0 0.0
2018-May-13 18:31N 43°21' W 003°03'0 0.0
2018-May-13 18:01N 43°21' W 003°03'0 0.0
2018-May-13 17:30N 43°21' W 003°03'0 0.0
2018-May-13 17:00N 43°21' W 003°03'0 0.0
2018-May-13 16:30N 43°21' W 003°03'0 0.0
2018-May-13 16:00N 43°21' W 003°03'0 0.0
2018-May-13 15:30N 43°21' W 003°03'0 0.0
2018-May-13 15:00N 43°21' W 003°03'0 0.0
2018-May-13 14:30N 43°21' W 003°03'0 0.0
2018-May-13 14:00N 43°21' W 003°03'0 0.0
2018-May-13 13:30N 43°21' W 003°03'0 0.0
2018-May-13 13:00N 43°21' W 003°03'0 0.0
2018-May-13 12:30N 43°21' W 003°03'0 0.0
2018-May-13 12:00N 43°21' W 003°03'0 0.0
2018-May-13 11:30N 43°21' W 003°03'0 0.0
2018-May-13 11:00N 43°21' W 003°03'0 0.0
2018-May-13 10:30N 43°21' W 003°03'0 0.0
2018-May-13 09:59N 43°21' W 003°03'0 0.0
2018-May-13 09:30N 43°21' W 003°03'0 0.0
2018-May-13 09:00N 43°21' W 003°03'0 0.0
2018-May-13 08:30N 43°21' W 003°03'0 0.0
2018-May-13 08:00N 43°21' W 003°03'0 0.0
2018-May-13 07:30N 43°21' W 003°03'0 0.0
2018-May-13 06:59N 43°21' W 003°03'0 0.0
2018-May-13 06:30N 43°21' W 003°03'0 0.0
2018-May-13 06:00N 43°21' W 003°03'0 0.0
2018-May-13 05:30N 43°21' W 003°03'0 0.0
2018-May-13 05:00N 43°21' W 003°03'0 0.0
2018-May-13 04:30N 43°21' W 003°03'0 0.0
2018-May-13 04:00N 43°21' W 003°03'0 0.0
2018-May-13 03:30N 43°21' W 003°03'0 0.0
2018-May-13 03:00N 43°21' W 003°03'0 0.0
2018-May-13 02:30N 43°21' W 003°03'0 0.0
2018-May-13 02:00N 43°21' W 003°03'0 0.0
2018-May-13 01:31N 43°21' W 003°03'0 0.0
2018-May-13 01:00N 43°21' W 003°03'0 0.0
2018-May-13 00:30N 43°21' W 003°03'0 0.0
2018-May-13 00:00N 43°21' W 003°03'0 0.0
2018-May-12 23:29N 43°21' W 003°03'0 0.0
2018-May-12 22:59N 43°21' W 003°03'0 0.0
2018-May-12 22:30N 43°21' W 003°03'0 0.0
2018-May-12 22:00N 43°21' W 003°03'0 0.0
2018-May-12 21:30N 43°21' W 003°03'0 0.0
2018-May-12 21:00N 43°21' W 003°03'0 0.0
2018-May-12 20:27N 43°21' W 003°03'0 0.0
2018-May-12 20:00N 43°21' W 003°03'0 0.0
2018-May-12 19:30N 43°21' W 003°03'0 0.6
2018-May-12 19:00N 43°21' W 003°03'611.1
2018-May-12 18:30N 43°25' W 003°08'815.5
2018-May-12 18:00N 43°30' W 003°17'815.5
2018-May-12 17:30N 43°33' W 003°26'815.5
2018-May-12 17:00N 43°34' W 003°37'815.4
2018-May-12 16:30N 43°36' W 003°47'815.6
2018-May-12 16:00N 43°37' W 003°58'5215.5
2018-May-12 12:37N 43°45' W 005°10'315.7
2018-May-12 12:26N 43°45' W 005°14'715.7
2018-May-12 12:00N 43°45' W 005°23'1015.6
2018-May-12 11:23N 43°46' W 005°36'615.7
2018-May-12 10:59N 43°47' W 005°45'915.4
2018-May-12 10:24N 43°47' W 005°57'  
Track history (hours):
 
Tides and Currents Weather Stations Pressure Air Temp Water Temp Dewpoint Dewpoint Depression Visibility Wind Speed Wind Dir Waves Ship Positions

Encounter

Last reported at 2018-May-21 08:09 UTC. Time now 2018-May-21 09:01 UTC.
Position N 49°38' W 003°51'.

Length 136 m; draft 6.8 m.

Type: Ship (hazmat cat A). MMSI: 245078000.

Date/timePositionNaut miles runAvg speedWind from/ knotsBaromVisibWave heightAir tempDewpointWater temp
2018-May-21 08:09N 49°38' W 003°51'515.1
2018-May-21 07:47N 49°41' W 003°44'515.4
2018-May-21 07:29N 49°43' W 003°38'815.5
2018-May-21 06:59N 49°48' W 003°28'815.6
2018-May-21 06:30N 49°51' W 003°18'916.1
2018-May-21 05:57N 49°56' W 003°06'716.3
2018-May-21 05:30N 49°60' W 002°56'816.6
2018-May-21 05:00N 50°02' W 002°44'2316.2
2018-May-21 03:36N 50°08' W 002°10'115.4
2018-May-21 03:31N 50°09' W 002°08'714.9
2018-May-21 03:00N 50°11' W 001°57'714.0
2018-May-21 02:30N 50°12' W 001°46'713.3
2018-May-21 02:00N 50°14' W 001°36'612.7
2018-May-21 01:30N 50°16' W 001°27'612.3
2018-May-21 01:00N 50°18' W 001°17'611.8
2018-May-21 00:31N 50°19' W 001°08'611.4
2018-May-21 00:00N 50°21' W 000°60'611.5
2018-May-20 23:30N 50°23' W 000°51'612.2
2018-May-20 23:00N 50°25' W 000°42'612.9
2018-May-20 22:30N 50°27' W 000°33'713.5
2018-May-20 22:01N 50°29' W 000°23'714.2
2018-May-20 21:30N 50°31' W 000°12'714.6
2018-May-20 21:00N 50°33' W 000°01'715.0
2018-May-20 20:30N 50°35' E 000°11'815.5
2018-May-20 20:01N 50°37' E 000°22'915.4
2018-May-20 19:27N 50°39' E 000°35'715.1
2018-May-20 19:01N 50°43' E 000°44'815.3
2018-May-20 18:31N 50°48' E 000°54'714.9
2018-May-20 18:00N 50°52' E 001°04'714.4
2018-May-20 17:30N 50°56' E 001°13'713.5
2018-May-20 17:00N 51°01' E 001°21'612.8
2018-May-20 16:30N 51°05' E 001°28'612.7
2018-May-20 16:00N 51°09' E 001°36'612.8
2018-May-20 15:30N 51°13' E 001°45'713.5
2018-May-20 15:00N 51°19' E 001°50'714.7
2018-May-20 14:30N 51°25' E 001°56'815.3
2018-May-20 14:00N 51°31' E 002°04'816.0
2018-May-20 13:31N 51°37' E 002°13'816.6
2018-May-20 13:00N 51°43' E 002°22'916.8
2018-May-20 12:29N 51°49' E 002°32'1616.7
2018-May-20 11:31N 52°01' E 002°50'116.3
2018-May-20 11:28N 52°01' E 002°51'715.7
2018-May-20 11:00N 52°02' E 003°02'915.6
2018-May-20 10:27N 52°02' E 003°17'715.4
2018-May-20 09:59N 52°03' E 003°28'715.0
2018-May-20 09:30N 52°03' E 003°40'714.6
2018-May-20 09:01N 52°02' E 003°52'611.9
2018-May-20 08:30N 52°00' E 004°01'612.9
2018-May-20 08:00N 51°57' E 004°10'510.4
2018-May-20 07:30N 51°54' E 004°17'5 9.3
2018-May-20 07:00N 51°53' E 004°24'1 1.6
2018-May-20 06:30N 51°53' E 004°25'0 0.0
2018-May-20 05:58N 51°53' E 004°25'0 0.0
2018-May-20 05:28N 51°53' E 004°25'0 0.0
2018-May-20 04:58N 51°53' E 004°25'0 0.0
2018-May-20 04:28N 51°53' E 004°25'0 0.0
2018-May-20 03:58N 51°53' E 004°25'0 0.0
2018-May-20 03:28N 51°53' E 004°25'0 0.0
2018-May-20 02:58N 51°53' E 004°25'0 0.0
2018-May-20 02:28N 51°53' E 004°25'0 0.0
2018-May-20 01:58N 51°53' E 004°25'0 0.0
2018-May-20 01:28N 51°53' E 004°25'0 0.0
2018-May-20 00:58N 51°53' E 004°25'0 0.0
2018-May-20 00:28N 51°53' E 004°25'0 0.0
2018-May-19 23:58N 51°53' E 004°25'0 0.0
2018-May-19 23:28N 51°53' E 004°25'0 0.0
2018-May-19 22:58N 51°53' E 004°25'0 0.0
2018-May-19 22:28N 51°53' E 004°25'0 0.0
2018-May-19 21:58N 51°53' E 004°25'0 0.0
2018-May-19 21:28N 51°53' E 004°25'0 0.0
2018-May-19 21:00N 51°53' E 004°25'0 0.4
2018-May-19 20:30N 51°53' E 004°25'1 2.2
2018-May-19 20:00N 51°54' E 004°24'4 8.0
2018-May-19 19:30N 51°54' E 004°17'5 9.7
2018-May-19 19:00N 51°57' E 004°11'612.5
2018-May-19 18:31N 51°60' E 004°02'713.7
2018-May-19 18:00N 52°00' E 003°51'4 8.9
2018-May-19 17:30N 51°60' E 003°44'5 9.7
2018-May-19 17:00N 51°58' E 003°36'5 9.8
2018-May-19 16:30N 51°57' E 003°29'4 8.7
2018-May-19 16:00N 51°57' E 003°21'1 2.3
2018-May-19 15:30N 51°56' E 003°22'3 4.9
2018-May-19 14:58N 51°59' E 003°21'3 6.3
2018-May-19 14:30N 51°56' E 003°22'5 8.7
2018-May-19 13:56N 51°54' E 003°14'611.1
2018-May-19 13:24N 51°52' E 003°05'2510.0
2018-May-19 10:57N 51°41' E 002°30'4 9.6
2018-May-19 10:30N 51°38' E 002°25'5 9.5
2018-May-19 09:59N 51°34' E 002°20'5 9.7
2018-May-19 09:29N 51°31' E 002°15'510.0
2018-May-19 09:00N 51°27' E 002°10'510.8
2018-May-19 08:30N 51°22' E 002°07'611.4
2018-May-19 08:00N 51°16' E 002°05'611.4
2018-May-19 07:30N 51°12' E 001°59'612.3
2018-May-19 07:00N 51°08' E 001°51'612.1
2018-May-19 06:30N 51°05' E 001°44'612.0
2018-May-19 06:00N 51°01' E 001°36'1512.2
2018-May-19 04:48N 50°48' E 001°25'413.1
2018-May-19 04:29N 50°44' E 001°23'3312.6
2018-May-19 01:50N 50°27' E 000°38'514.3
2018-May-19 01:30N 50°26' E 000°31'714.5
2018-May-19 00:59N 50°24' E 000°19'715.0
2018-May-19 00:30N 50°22' E 000°08'815.5
2018-May-19 00:00N 50°20' W 000°03'816.0
2018-May-18 23:30N 50°17' W 000°15'816.6
2018-May-18 23:00N 50°15' W 000°27'816.9
2018-May-18 22:30N 50°13' W 000°40'917.1
2018-May-18 22:00N 50°10' W 000°53'917.3
2018-May-18 21:31N 50°08' W 001°06'917.1
2018-May-18 21:00N 50°06' W 001°19'816.8
2018-May-18 20:30N 50°04' W 001°31'816.2
2018-May-18 20:00N 50°02' W 001°44'815.4
2018-May-18 19:30N 49°60' W 001°55'714.6
2018-May-18 19:00N 49°58' W 002°06'713.7
2018-May-18 18:30N 49°56' W 002°16'713.1
2018-May-18 18:00N 49°54' W 002°26'612.7
2018-May-18 17:30N 49°52' W 002°36'612.4
2018-May-18 17:00N 49°51' W 002°45'612.2
2018-May-18 16:30N 49°50' W 002°54'611.9
2018-May-18 16:00N 49°49' W 003°03'611.9
2018-May-18 15:30N 49°49' W 003°13'1211.9
2018-May-18 14:32N 49°50' W 003°31'011.9
2018-May-18 14:30N 49°50' W 003°31'612.1
2018-May-18 14:00N 49°50' W 003°41'4114.2
2018-May-18 11:07N 49°53' W 004°44'415.1
2018-May-18 10:51N 49°53' W 004°50'915.3
2018-May-18 10:16N 49°53' W 005°04'1415.9
2018-May-18 09:24N 49°54' W 005°25'1116.4
2018-May-18 08:45N 49°54' W 005°42'1216.3
2018-May-18 08:03N 49°55' W 005°60'116.2
2018-May-18 08:00N 49°56' W 005°60'2215.7
2018-May-18 06:37N 50°18' W 006°00'215.0
2018-May-18 06:30N 50°20' W 006°00'715.0
2018-May-18 06:00N 50°27' W 006°01'714.9
2018-May-18 05:30N 50°35' W 006°01'815.4
2018-May-18 05:00N 50°42' W 006°01'815.7
2018-May-18 04:30N 50°50' W 006°01'816.0
2018-May-18 04:01N 50°58' W 006°01'816.2
2018-May-18 03:31N 51°06' W 006°01'816.6
2018-May-18 03:00N 51°15' W 005°60'817.0
2018-May-18 02:31N 51°23' W 005°60'917.3
2018-May-18 02:01N 51°32' W 005°60'817.0
2018-May-18 01:31N 51°40' W 005°59'816.9
2018-May-18 01:00N 51°48' W 005°55'816.1
2018-May-18 00:30N 51°56' W 005°51'815.7
2018-May-18 00:00N 52°03' W 005°47'815.1
2018-May-17 23:27N 52°11' W 005°43'714.6
2018-May-17 23:00N 52°17' W 005°40'814.1
2018-May-17 22:28N 52°25' W 005°36'713.5
2018-May-17 21:58N 52°31' W 005°32'612.8
2018-May-17 21:28N 52°37' W 005°29'612.4
2018-May-17 21:00N 52°43' W 005°25'612.7
2018-May-17 20:30N 52°48' W 005°21'913.7
2018-May-17 19:49N 52°57' W 005°16'714.8
2018-May-17 19:20N 53°04' W 005°11'515.2
2018-May-17 19:00N 53°08' W 005°06'815.6
2018-May-17 18:30N 53°15' W 005°01'4015.2
2018-May-17 15:53N 53°33' W 004°02'1217.2
2018-May-17 15:12N 53°33' W 003°43'316.9
2018-May-17 15:00N 53°33' W 003°37'916.9
2018-May-17 14:28N 53°33' W 003°22'613.4
2018-May-17 14:00N 53°32' W 003°11'713.7
2018-May-17 13:29N 53°27' W 003°02'1 1.1
2018-May-17 13:00N 53°27' W 003°01'0 0.4
2018-May-17 12:30N 53°27' W 003°01'0 0.8
2018-May-17 12:00N 53°28' W 003°02'0 0.0
2018-May-17 11:23N 53°28' W 003°02'0 0.0
2018-May-17 10:56N 53°28' W 003°02'0 0.0
2018-May-17 10:29N 53°28' W 003°02'0 0.0
2018-May-17 09:53N 53°28' W 003°02'0 0.0
2018-May-17 09:26N 53°28' W 003°02'0 0.0
2018-May-17 08:59N 53°28' W 003°02'0 0.0
2018-May-17 08:28N 53°28' W 003°02'0 0.0
2018-May-17 07:58N 53°28' W 003°02'0 0.0
2018-May-17 07:28N 53°28' W 003°02'0 0.0
2018-May-17 06:58N 53°28' W 003°02'0 0.0
2018-May-17 06:25N 53°28' W 003°02'0 0.0
2018-May-17 05:55N 53°28' W 003°02'0 0.0
2018-May-17 05:28N 53°28' W 003°02'0 0.0
2018-May-17 04:55N 53°28' W 003°02'0 0.0
2018-May-17 04:28N 53°28' W 003°02'0 0.0
2018-May-17 03:55N 53°28' W 003°02'0 0.0
2018-May-17 03:28N 53°28' W 003°02'0 0.0
2018-May-17 02:52N 53°28' W 003°02'0 0.0
2018-May-17 02:28N 53°28' W 003°02'0 0.0
2018-May-17 01:58N 53°28' W 003°02'0 0.0
2018-May-17 01:28N 53°28' W 003°02'0 0.6
2018-May-17 01:00N 53°27' W 003°01'0 0.7
2018-May-17 00:30N 53°27' W 003°01'0 0.0
2018-May-17 00:00N 53°27' W 003°01'0 0.4
2018-May-16 23:30N 53°27' W 003°01'0 0.8
2018-May-16 23:00N 53°27' W 003°02'612.1
2018-May-16 22:30N 53°32' W 003°08'714.0
2018-May-16 22:00N 53°31' W 003°20'611.4
2018-May-16 21:31N 53°31' W 003°29'611.3
2018-May-16 21:00N 53°30' W 003°39'713.3
2018-May-16 20:30N 53°30' W 003°50'714.7
2018-May-16 20:00N 53°30' W 004°02'5313.7
2018-May-16 16:08N 53°21' W 005°30'214.1
2018-May-16 16:00N 53°22' W 005°34'714.1
2018-May-16 15:30N 53°22' W 005°45'714.0
2018-May-16 15:00N 53°22' W 005°57'611.2
2018-May-16 14:30N 53°20' W 006°06'4 8.4
2018-May-16 14:00N 53°21' W 006°13'0 0.1
2018-May-16 13:29N 53°21' W 006°13'0 0.0
2018-May-16 08:24N 53°21' W 006°13'0 0.0
2018-May-16 07:57N 53°21' W 006°13'0 0.0
2018-May-16 04:12N 53°21' W 006°13'0 0.0
2018-May-16 03:57N 53°21' W 006°13'0 0.0
2018-May-16 01:57N 53°21' W 006°13'0 0.0
2018-May-15 22:58N 53°21' W 006°13'0 0.0
2018-May-15 22:30N 53°21' W 006°13'0 0.0
2018-May-15 21:55N 53°21' W 006°13'0 0.0
2018-May-15 21:03N 53°21' W 006°13'0 0.0
2018-May-15 20:58N 53°21' W 006°13'0 0.0
2018-May-15 20:30N 53°21' W 006°13'0 0.0
2018-May-15 20:01N 53°21' W 006°13'0 0.0
2018-May-15 19:25N 53°21' W 006°13'0 0.0
2018-May-15 18:54N 53°21' W 006°13'0 0.2
2018-May-15 18:29N 53°21' W 006°13'3 5.9
2018-May-15 18:00N 53°21' W 006°08'510.5
2018-May-15 17:30N 53°17' W 006°01'714.4
2018-May-15 17:00N 53°11' W 005°57'5 9.7
2018-May-15 16:30N 53°15' W 006°00'611.2
2018-May-15 16:00N 53°10' W 005°57'510.6
2018-May-15 15:30N 53°05' W 005°55'5 9.9
2018-May-15 15:00N 52°60' W 005°54'510.8
2018-May-15 14:30N 52°54' W 005°53'713.3
2018-May-15 14:00N 52°48' W 005°52'1513.3
2018-May-15 12:53N 52°33' W 005°50'613.7
2018-May-15 12:28N 52°27' W 005°50'714.2
2018-May-15 12:00N 52°21' W 005°49'4916.0
2018-May-15 08:58N 51°32' W 005°52'6416.4
2018-May-15 05:05N 50°28' W 005°53'116.7
2018-May-15 05:00N 50°27' W 005°53'816.6
2018-May-15 04:30N 50°19' W 005°53'40214.6
2018-May-14 01:02N 43°50' W 003°21'014.4
2018-May-14 01:00N 43°50' W 003°21'714.6
2018-May-14 00:31N 43°43' W 003°17'714.6
2018-May-14 00:00N 43°36' W 003°13'714.7
2018-May-13 23:31N 43°30' W 003°09'714.5
2018-May-13 23:00N 43°23' W 003°05'3 5.3
2018-May-13 22:30N 43°21' W 003°03'0 0.1
2018-May-13 22:01N 43°21' W 003°03'0 0.0
2018-May-13 21:30N 43°21' W 003°03'0 0.0
2018-May-13 20:58N 43°21' W 003°03'0 0.0
2018-May-13 20:28N 43°21' W 003°03'0 0.0
2018-May-13 19:58N 43°21' W 003°03'0 0.0
2018-May-13 19:25N 43°21' W 003°03'0 0.0
2018-May-13 18:58N 43°21' W 003°03'0 0.0
2018-May-13 18:31N 43°21' W 003°03'0 0.0
2018-May-13 18:01N 43°21' W 003°03'0 0.0
2018-May-13 17:30N 43°21' W 003°03'0 0.0
2018-May-13 17:00N 43°21' W 003°03'0 0.0
2018-May-13 16:30N 43°21' W 003°03'0 0.0
2018-May-13 16:00N 43°21' W 003°03'0 0.0
2018-May-13 15:30N 43°21' W 003°03'0 0.0
2018-May-13 15:00N 43°21' W 003°03'0 0.0
2018-May-13 14:30N 43°21' W 003°03'0 0.0
2018-May-13 14:00N 43°21' W 003°03'0 0.0
2018-May-13 13:30N 43°21' W 003°03'0 0.0
2018-May-13 13:00N 43°21' W 003°03'0 0.0
2018-May-13 12:30N 43°21' W 003°03'0 0.0
2018-May-13 12:00N 43°21' W 003°03'0 0.0
2018-May-13 11:30N 43°21' W 003°03'0 0.0
2018-May-13 11:00N 43°21' W 003°03'0 0.0
2018-May-13 10:30N 43°21' W 003°03'0 0.0
2018-May-13 09:59N 43°21' W 003°03'0 0.0
2018-May-13 09:30N 43°21' W 003°03'0 0.0
2018-May-13 09:00N 43°21' W 003°03'0 0.0
2018-May-13 08:30N 43°21' W 003°03'0 0.0
2018-May-13 08:00N 43°21' W 003°03'0 0.0
2018-May-13 07:30N 43°21' W 003°03'0 0.0
2018-May-13 06:59N 43°21' W 003°03'0 0.0
2018-May-13 06:30N 43°21' W 003°03'0 0.0
2018-May-13 06:00N 43°21' W 003°03'0 0.0
2018-May-13 05:30N 43°21' W 003°03'0 0.0
2018-May-13 05:00N 43°21' W 003°03'0 0.0
2018-May-13 04:30N 43°21' W 003°03'0 0.0
2018-May-13 04:00N 43°21' W 003°03'0 0.0
2018-May-13 03:30N 43°21' W 003°03'0 0.0
2018-May-13 03:00N 43°21' W 003°03'0 0.0
2018-May-13 02:30N 43°21' W 003°03'0 0.0
2018-May-13 02:00N 43°21' W 003°03'0 0.0
2018-May-13 01:31N 43°21' W 003°03'0 0.0
2018-May-13 01:00N 43°21' W 003°03'0 0.0
2018-May-13 00:30N 43°21' W 003°03'0 0.0
2018-May-13 00:00N 43°21' W 003°03'0 0.0
2018-May-12 23:29N 43°21' W 003°03'0 0.0
2018-May-12 22:59N 43°21' W 003°03'0 0.0
2018-May-12 22:30N 43°21' W 003°03'0 0.0
2018-May-12 22:00N 43°21' W 003°03'0 0.0
2018-May-12 21:30N 43°21' W 003°03'0 0.0
2018-May-12 21:00N 43°21' W 003°03'0 0.0
2018-May-12 20:27N 43°21' W 003°03'0 0.0
2018-May-12 20:00N 43°21' W 003°03'0 0.0
2018-May-12 19:30N 43°21' W 003°03'0 0.6
2018-May-12 19:00N 43°21' W 003°03'611.1
2018-May-12 18:30N 43°25' W 003°08'815.5
2018-May-12 18:00N 43°30' W 003°17'815.5
2018-May-12 17:30N 43°33' W 003°26'815.5
2018-May-12 17:00N 43°34' W 003°37'815.4
2018-May-12 16:30N 43°36' W 003°47'815.6
2018-May-12 16:00N 43°37' W 003°58'5215.5
2018-May-12 12:37N 43°45' W 005°10'315.7
2018-May-12 12:26N 43°45' W 005°14'715.7
2018-May-12 12:00N 43°45' W 005°23'1015.6
2018-May-12 11:23N 43°46' W 005°36'615.7
2018-May-12 10:59N 43°47' W 005°45'915.4
2018-May-12 10:24N 43°47' W 005°57'  

Dump ship's entire track history